AirNav   Pilot Hours Calculator
 
 1165 users online  

30IS Aero Lake Estates Airport
Genoa, Illinois, USA

GOING TO GENOA?


FAA INFORMATION EFFECTIVE 15 JULY 2021

Location

FAA Identifier: 30IS
Lat/Long: 42-04-38.0930N 088-37-30.3180W
42-04.634883N 088-37.505300W
42.0772481,-88.6250883
(estimated)
Elevation: 875 ft. / 267 m (estimated)
Variation: 00W (1985)
From city: 3 miles SE of GENOA, IL
Time zone: UTC -5 (UTC -6 during Standard Time)
Zip code: 60135

Airport Operations

Airport use: Private use. Permission required prior to landing
Activation date: 02/1987
Control tower: no
ARTCC: CHICAGO CENTER
FSS: KANKAKEE FLIGHT SERVICE STATION
Attendance: CONTINUOUS
Wind indicator: yes
Segmented circle: no

Airport Communications

WX AWOS-3 at DKB (9 nm SW): 119.075 (815-748-2350)
WX ASOS at ARR (19 nm S): PHONE 630-466-5622
WX ASOS at DPA (20 nm SE): PHONE 630-587-3668

Nearby radio navigation aids

VOR radial/distance  VOR name  Freq  Var
DPAr310/16.6DUPAGE VOR/DME108.4002E
RFDr108/27.0ROCKFORD VOR/DME110.8001E
OBKr256/31.2NORTHBROOK VOR/DME113.0002W
JOTr335/34.7JOLIET VOR/DME112.3002E
JVLr141/35.9JANESVILLE VOR/DME114.3003E

Airport Services

Runway Information

Runway NE/SW

Dimensions: 2800 x 40 ft. / 853 x 12 m
Surface: asphalt
ASPHALT SURFACE IS 40' WIDE WITH 30' GRASS ON EACH SIDE
RUNWAY NE  RUNWAY SW
Traffic pattern: leftleft
Displaced threshold: no225 ft.

Airport Ownership and Management from official FAA records

Ownership: Privately-owned
Owner: HALINA CHRZASZCZ
16870 STRAIGHT WAY
GENOA, IL 60135
Phone 847-668-8637
Manager: GEORGE CHRZASZCZ
30701 CRANE CT
GENOA, IL 60135
Phone (847) 668-8637

Airport Operational Statistics

Aircraft based on the field: 8
Single engine airplanes: 3
Multi engine airplanes: 1
Helicopters: 3
Ultralights: 1
    

Additional Remarks

FOR CD CTC CHICAGO APCH AT 847-289-0926.

Instrument Procedures

There are no published instrument procedures at 30IS.

Some nearby airports with instrument procedures:

KDKB - De Kalb Taylor Municipal Airport (9 nm SW)
3CK - Lake in the Hills Airport (16 nm NE)
C77 - Poplar Grove Airport (17 nm NW)
KARR - Aurora Municipal Airport (19 nm S)
KDPA - DuPage Airport (20 nm SE)
 
Loc | Ops | Rwys | IFR | FBO | Links
Com | Nav | Svcs | Stats | Notes
Area around 30IS (Aero Lake Estates Airport)
 
Road maps at: MapQuest Bing Google
 
Aerial photo
WARNING: Photo may not be current or correct
Aerial photo of 30IS (Aero Lake Estates Airport)
Taken in October 2005

Do you have a better or more recent aerial photo of Aero Lake Estates Airport that you would like to share? If so, please send us your photo.

 
Sectional chart

 
Airport distance calculator
Flying to Aero Lake Estates Airport? Find the distance to fly.

From to 30IS

Sunrise and sunset
Times for 01-Aug-2021
 Local
(UTC-5)
 Zulu
(UTC)
Morning civil twilight05:1710:17
Sunrise05:4910:49
Sunset20:1301:13
Evening civil twilight20:4401:44

Current date and time
Zulu (UTC)  01-Aug-2021 18:46:37
Local (UTC-5)  01-Aug-2021 13:46:37
 
METAR
KDKB 
9nm S 
011835Z AUTO 35011G16KT 7SM SCT038 SCT043 SCT050 23/15 A3009 RMK AO2 T02330145
KDPA 
19nm SE 
011752Z 02009KT 6SM HZ SCT046 SCT065 BKN080 24/13 A3005 RMK AO2 SLP173 T02440133 10256 20183 51005
KARR 
20nm S 
011752Z 35007KT 10SM FEW042 24/15 A3006 RMK AO2 SLP176 T02440150 10250 20156 51006
TAF
KDPA 
19nm SE 
011729Z 0118/0218 02010G16KT P6SM SCT045 TEMPO 0118/0120 6SM HZ FM020100 02005KT P6SM SCT040 SCT250 FM021600 35005KT P6SM BKN050
KRFD 
22nm W 
011729Z 0118/0218 36010KT P6SM BKN045 TEMPO 0118/0120 6SM HZ FM020100 VRB04KT P6SM FEW250 FM021600 30005KT P6SM BKN050
NOTAMs
Click for the latest NOTAMs
NOTAMs are issued by the DoD/FAA and will open in a separate window not controlled by AirNav.

 

 
 

Would you like to see your business listed on this page?

 If your business provides an interesting product or service to pilots, flight crews, aircraft, or users of the Aero Lake Estates Airport, you should consider listing it here.  To start the listing process, click on the button below
 
Add a business
 

Other Pages about Aero Lake Estates Airport

www.aerolakeestates.com
 
Update a link
 
Copyright © AirNav, LLC. All rights reserved. Privacy Policy  Contact